Anniston Metropolitan Airport Anniston US
ICAO: KANB
IATA: ANB
Category: Medium
Scheduled Services: No

Elevation: 612 ft
TransAlt. 18000 ft.

Airport Communications:
BIRMINGHAM APP/DEP:125.45
ASOS:119.675
CTAF:123.6
RDO:122.2
UNICOM:123

KANB Zoom In..

If you have problems with the map follow the link
https://www.worldairports.se/pages/airport.php?
ICAO=KANB

Runways:

(A) RW 05 length 7000 ft width 150 ft
ILS 111.50 / hdg 49

(B) RW 23 length 7000 ft width 150 ft
---- / hdg 229

Location; KANB
Day. 23 / Time. 17.53 Zulu
* Altimeter: 30.20
* Temperature: 20° c. 68°f.
* Wind from: 000° Speed 00 kn.
Dewpoint: 09° c.
Visibility: 10 Statute Miles.
Clouds: Clear (automated report).

KANB 231753Z AUTO 00000KT 10SM CLR 20/09 A3020 RMK AO2 SLP227 T02000089 10200 20083 58017


Wind - Calm.

 
 
jpsmedia.com for Web Design worldairports.se 2018   terms of use